sensor_id;sensor_type;location;lat;lon;timestamp;temperature;humidity
46336;DHT22;31365;48.858;8.530;2022-08-01T00:01:30;22.20;87.80
46336;DHT22;31365;48.858;8.530;2022-08-01T00:04:00;22.10;87.80
46336;DHT22;31365;48.858;8.530;2022-08-01T00:06:29;22.10;88.10
46336;DHT22;31365;48.858;8.530;2022-08-01T00:08:57;22.10;88.40
46336;DHT22;31365;48.858;8.530;2022-08-01T00:11:26;22.10;88.70
46336;DHT22;31365;48.858;8.530;2022-08-01T00:13:54;22.00;89.00
46336;DHT22;31365;48.858;8.530;2022-08-01T00:16:23;22.00;89.20
46336;DHT22;31365;48.858;8.530;2022-08-01T00:18:52;22.00;89.30
46336;DHT22;31365;48.858;8.530;2022-08-01T00:21:22;22.00;89.50
46336;DHT22;31365;48.858;8.530;2022-08-01T00:23:50;21.90;89.80
46336;DHT22;31365;48.858;8.530;2022-08-01T00:26:19;21.90;90.00
46336;DHT22;31365;48.858;8.530;2022-08-01T00:28:48;21.80;90.10
46336;DHT22;31365;48.858;8.530;2022-08-01T00:31:16;21.80;90.20
46336;DHT22;31365;48.858;8.530;2022-08-01T00:33:47;21.80;90.30
46336;DHT22;31365;48.858;8.530;2022-08-01T00:36:15;21.80;90.40
46336;DHT22;31365;48.858;8.530;2022-08-01T00:38:45;21.70;90.50
46336;DHT22;31365;48.858;8.530;2022-08-01T00:41:13;21.70;90.60
46336;DHT22;31365;48.858;8.530;2022-08-01T00:43:42;21.70;90.60
46336;DHT22;31365;48.858;8.530;2022-08-01T00:46:10;21.70;90.80
46336;DHT22;31365;48.858;8.530;2022-08-01T00:48:39;21.70;90.90
46336;DHT22;31365;48.858;8.530;2022-08-01T00:51:07;21.70;90.90
46336;DHT22;31365;48.858;8.530;2022-08-01T00:53:37;21.70;91.00
46336;DHT22;31365;48.858;8.530;2022-08-01T00:56:24;21.60;91.20
46336;DHT22;31365;48.858;8.530;2022-08-01T00:58:54;21.60;91.40
46336;DHT22;31365;48.858;8.530;2022-08-01T01:01:25;21.50;91.50
46336;DHT22;31365;48.858;8.530;2022-08-01T01:04:05;21.60;91.70
46336;DHT22;31365;48.858;8.530;2022-08-01T01:06:42;21.50;91.70
46336;DHT22;31365;48.858;8.530;2022-08-01T01:09:31;21.50;91.90
46336;DHT22;31365;48.858;8.530;2022-08-01T01:12:22;21.40;91.90
46336;DHT22;31365;48.858;8.530;2022-08-01T01:15:07;21.30;92.10
46336;DHT22;31365;48.858;8.530;2022-08-01T01:17:41;21.20;92.10
46336;DHT22;31365;48.858;8.530;2022-08-01T01:20:21;21.30;92.30
46336;DHT22;31365;48.858;8.530;2022-08-01T01:23:09;21.20;92.50
46336;DHT22;31365;48.858;8.530;2022-08-01T01:26:08;21.20;92.80
46336;DHT22;31365;48.858;8.530;2022-08-01T01:29:05;21.10;92.80
46336;DHT22;31365;48.858;8.530;2022-08-01T01:31:43;21.10;93.20
46336;DHT22;31365;48.858;8.530;2022-08-01T01:34:18;21.10;93.40
46336;DHT22;31365;48.858;8.530;2022-08-01T01:36:51;21.00;93.40
46336;DHT22;31365;48.858;8.530;2022-08-01T01:39:24;21.00;93.80
46336;DHT22;31365;48.858;8.530;2022-08-01T01:41:55;21.00;94.00
46336;DHT22;31365;48.858;8.530;2022-08-01T01:44:27;21.00;94.10
46336;DHT22;31365;48.858;8.530;2022-08-01T01:46:59;21.00;94.30
46336;DHT22;31365;48.858;8.530;2022-08-01T01:49:29;21.00;94.40
46336;DHT22;31365;48.858;8.530;2022-08-01T01:52:01;21.00;94.60
46336;DHT22;31365;48.858;8.530;2022-08-01T01:54:35;21.00;94.70
46336;DHT22;31365;48.858;8.530;2022-08-01T01:57:06;20.90;94.70
46336;DHT22;31365;48.858;8.530;2022-08-01T01:59:38;21.00;94.80
46336;DHT22;31365;48.858;8.530;2022-08-01T02:02:09;20.90;94.90
46336;DHT22;31365;48.858;8.530;2022-08-01T02:04:42;20.90;95.00
46336;DHT22;31365;48.858;8.530;2022-08-01T02:07:14;20.90;95.30
46336;DHT22;31365;48.858;8.530;2022-08-01T02:09:50;20.80;95.20
46336;DHT22;31365;48.858;8.530;2022-08-01T02:12:20;20.90;95.20
46336;DHT22;31365;48.858;8.530;2022-08-01T02:14:53;20.80;95.30
46336;DHT22;31365;48.858;8.530;2022-08-01T02:17:23;20.80;95.40
46336;DHT22;31365;48.858;8.530;2022-08-01T02:19:53;20.70;95.60
46336;DHT22;31365;48.858;8.530;2022-08-01T02:22:27;20.80;95.70
46336;DHT22;31365;48.858;8.530;2022-08-01T02:25:02;20.70;95.90
46336;DHT22;31365;48.858;8.530;2022-08-01T02:27:39;20.70;95.90
46336;DHT22;31365;48.858;8.530;2022-08-01T02:30:14;20.70;95.90
46336;DHT22;31365;48.858;8.530;2022-08-01T02:32:47;20.70;96.00
46336;DHT22;31365;48.858;8.530;2022-08-01T02:35:21;20.60;96.00
46336;DHT22;31365;48.858;8.530;2022-08-01T02:37:57;20.60;96.20
46336;DHT22;31365;48.858;8.530;2022-08-01T02:40:28;20.60;96.60
46336;DHT22;31365;48.858;8.530;2022-08-01T02:43:02;20.40;96.80
46336;DHT22;31365;48.858;8.530;2022-08-01T02:45:35;20.40;96.80
46336;DHT22;31365;48.858;8.530;2022-08-01T02:48:11;20.40;97.00
46336;DHT22;31365;48.858;8.530;2022-08-01T02:50:42;20.40;97.10
46336;DHT22;31365;48.858;8.530;2022-08-01T02:53:16;20.30;97.30
46336;DHT22;31365;48.858;8.530;2022-08-01T02:55:48;20.30;97.40
46336;DHT22;31365;48.858;8.530;2022-08-01T02:58:18;20.30;97.50
46336;DHT22;31365;48.858;8.530;2022-08-01T03:00:58;20.30;97.90
46336;DHT22;31365;48.858;8.530;2022-08-01T03:03:29;20.20;98.00
46336;DHT22;31365;48.858;8.530;2022-08-01T03:05:59;20.20;98.10
46336;DHT22;31365;48.858;8.530;2022-08-01T03:08:30;20.20;98.20
46336;DHT22;31365;48.858;8.530;2022-08-01T03:11:01;20.20;98.30
46336;DHT22;31365;48.858;8.530;2022-08-01T03:13:31;20.20;98.50
46336;DHT22;31365;48.858;8.530;2022-08-01T03:16:04;20.20;98.60
46336;DHT22;31365;48.858;8.530;2022-08-01T03:18:34;20.20;98.70
46336;DHT22;31365;48.858;8.530;2022-08-01T03:21:06;20.10;98.80
46336;DHT22;31365;48.858;8.530;2022-08-01T03:23:37;20.10;99.00
46336;DHT22;31365;48.858;8.530;2022-08-01T03:26:06;20.10;99.30
46336;DHT22;31365;48.858;8.530;2022-08-01T03:28:37;20.10;99.60
46336;DHT22;31365;48.858;8.530;2022-08-01T03:31:09;20.00;99.80
46336;DHT22;31365;48.858;8.530;2022-08-01T03:33:40;20.00;99.90
46336;DHT22;31365;48.858;8.530;2022-08-01T03:36:10;20.00;99.90
46336;DHT22;31365;48.858;8.530;2022-08-01T03:38:40;20.00;99.90
46336;DHT22;31365;48.858;8.530;2022-08-01T03:41:15;20.00;99.90
46336;DHT22;31365;48.858;8.530;2022-08-01T03:43:51;20.00;99.90
46336;DHT22;31365;48.858;8.530;2022-08-01T03:46:32;20.10;99.90
46336;DHT22;31365;48.858;8.530;2022-08-01T03:49:07;19.90;99.90
46336;DHT22;31365;48.858;8.530;2022-08-01T03:51:44;20.00;99.90
46336;DHT22;31365;48.858;8.530;2022-08-01T03:54:16;20.00;99.90
46336;DHT22;31365;48.858;8.530;2022-08-01T03:56:50;19.90;99.90
46336;DHT22;31365;48.858;8.530;2022-08-01T03:59:20;19.90;99.90
46336;DHT22;31365;48.858;8.530;2022-08-01T04:01:51;19.90;99.90
46336;DHT22;31365;48.858;8.530;2022-08-01T04:04:21;19.90;99.90
46336;DHT22;31365;48.858;8.530;2022-08-01T04:06:50;20.00;99.90
46336;DHT22;31365;48.858;8.530;2022-08-01T04:09:21;19.90;99.90
46336;DHT22;31365;48.858;8.530;2022-08-01T04:11:49;19.90;99.90
46336;DHT22;31365;48.858;8.530;2022-08-01T04:14:18;20.00;99.90
46336;DHT22;31365;48.858;8.530;2022-08-01T04:16:46;20.00;99.90
46336;DHT22;31365;48.858;8.530;2022-08-01T04:19:16;20.00;99.90
46336;DHT22;31365;48.858;8.530;2022-08-01T04:21:45;20.00;99.90
46336;DHT22;31365;48.858;8.530;2022-08-01T04:24:16;20.00;99.90
46336;DHT22;31365;48.858;8.530;2022-08-01T04:26:47;19.90;99.90
46336;DHT22;31365;48.858;8.530;2022-08-01T04:29:19;20.00;99.90
46336;DHT22;31365;48.858;8.530;2022-08-01T04:31:50;20.00;99.90
46336;DHT22;31365;48.858;8.530;2022-08-01T04:34:25;20.00;99.90
46336;DHT22;31365;48.858;8.530;2022-08-01T04:36:59;20.00;99.90
46336;DHT22;31365;48.858;8.530;2022-08-01T04:39:31;20.00;99.90
46336;DHT22;31365;48.858;8.530;2022-08-01T04:42:17;20.10;99.90
46336;DHT22;31365;48.858;8.530;2022-08-01T04:44:56;20.10;99.90
46336;DHT22;31365;48.858;8.530;2022-08-01T04:47:25;20.20;99.90
46336;DHT22;31365;48.858;8.530;2022-08-01T04:49:56;20.20;99.90
46336;DHT22;31365;48.858;8.530;2022-08-01T04:52:34;20.30;99.90
46336;DHT22;31365;48.858;8.530;2022-08-01T04:55:05;20.30;99.90
46336;DHT22;31365;48.858;8.530;2022-08-01T04:57:34;20.40;99.90
46336;DHT22;31365;48.858;8.530;2022-08-01T05:00:06;20.50;99.90
46336;DHT22;31365;48.858;8.530;2022-08-01T05:02:36;20.50;99.90
46336;DHT22;31365;48.858;8.530;2022-08-01T05:05:06;20.60;99.90
46336;DHT22;31365;48.858;8.530;2022-08-01T05:07:39;20.70;99.90
46336;DHT22;31365;48.858;8.530;2022-08-01T05:10:11;20.80;99.90
46336;DHT22;31365;48.858;8.530;2022-08-01T05:12:40;20.90;99.90
46336;DHT22;31365;48.858;8.530;2022-08-01T05:15:08;21.00;99.90
46336;DHT22;31365;48.858;8.530;2022-08-01T05:17:41;21.10;99.90
46336;DHT22;31365;48.858;8.530;2022-08-01T05:20:12;21.20;99.90
46336;DHT22;31365;48.858;8.530;2022-08-01T05:22:40;21.30;99.90
46336;DHT22;31365;48.858;8.530;2022-08-01T05:25:09;21.40;99.90
46336;DHT22;31365;48.858;8.530;2022-08-01T05:27:40;21.50;99.90
46336;DHT22;31365;48.858;8.530;2022-08-01T05:30:10;21.50;99.90
46336;DHT22;31365;48.858;8.530;2022-08-01T05:32:39;21.60;99.90
46336;DHT22;31365;48.858;8.530;2022-08-01T05:35:08;21.70;99.90
46336;DHT22;31365;48.858;8.530;2022-08-01T05:37:38;21.80;99.90
46336;DHT22;31365;48.858;8.530;2022-08-01T05:40:07;21.90;99.90
46336;DHT22;31365;48.858;8.530;2022-08-01T05:42:36;22.00;99.90
46336;DHT22;31365;48.858;8.530;2022-08-01T05:45:06;22.10;99.90
46336;DHT22;31365;48.858;8.530;2022-08-01T05:47:34;22.20;99.90
46336;DHT22;31365;48.858;8.530;2022-08-01T05:50:09;22.30;99.90
46336;DHT22;31365;48.858;8.530;2022-08-01T05:52:39;22.30;99.90
46336;DHT22;31365;48.858;8.530;2022-08-01T05:55:08;22.40;99.90
46336;DHT22;31365;48.858;8.530;2022-08-01T05:57:37;22.50;99.90
46336;DHT22;31365;48.858;8.530;2022-08-01T06:00:07;22.50;99.90
46336;DHT22;31365;48.858;8.530;2022-08-01T06:02:40;22.50;99.90
46336;DHT22;31365;48.858;8.530;2022-08-01T06:05:10;22.40;99.90
46336;DHT22;31365;48.858;8.530;2022-08-01T06:07:41;22.30;99.90
46336;DHT22;31365;48.858;8.530;2022-08-01T06:10:10;22.30;99.90
46336;DHT22;31365;48.858;8.530;2022-08-01T06:12:38;22.10;99.90
46336;DHT22;31365;48.858;8.530;2022-08-01T06:15:07;22.20;99.90
46336;DHT22;31365;48.858;8.530;2022-08-01T06:17:36;22.10;99.90
46336;DHT22;31365;48.858;8.530;2022-08-01T06:20:07;22.20;99.90
46336;DHT22;31365;48.858;8.530;2022-08-01T06:22:36;22.20;99.90
46336;DHT22;31365;48.858;8.530;2022-08-01T06:25:09;22.20;99.90
46336;DHT22;31365;48.858;8.530;2022-08-01T06:27:38;22.10;99.90
46336;DHT22;31365;48.858;8.530;2022-08-01T06:30:07;22.30;99.90
46336;DHT22;31365;48.858;8.530;2022-08-01T06:32:36;22.30;99.90
46336;DHT22;31365;48.858;8.530;2022-08-01T06:35:05;22.40;99.90
46336;DHT22;31365;48.858;8.530;2022-08-01T06:37:33;22.50;99.90
46336;DHT22;31365;48.858;8.530;2022-08-01T06:40:02;22.60;99.90
46336;DHT22;31365;48.858;8.530;2022-08-01T06:42:33;22.70;99.90
46336;DHT22;31365;48.858;8.530;2022-08-01T06:45:04;22.80;99.90
46336;DHT22;31365;48.858;8.530;2022-08-01T06:47:33;22.80;99.90
46336;DHT22;31365;48.858;8.530;2022-08-01T06:50:04;22.90;99.90
46336;DHT22;31365;48.858;8.530;2022-08-01T06:52:35;23.00;99.90
46336;DHT22;31365;48.858;8.530;2022-08-01T06:55:05;23.00;99.90
46336;DHT22;31365;48.858;8.530;2022-08-01T06:57:35;23.00;99.90
46336;DHT22;31365;48.858;8.530;2022-08-01T07:00:05;23.10;99.90
46336;DHT22;31365;48.858;8.530;2022-08-01T07:02:37;23.10;99.90
46336;DHT22;31365;48.858;8.530;2022-08-01T07:05:06;23.10;99.90
46336;DHT22;31365;48.858;8.530;2022-08-01T07:07:36;23.10;99.90
46336;DHT22;31365;48.858;8.530;2022-08-01T07:10:05;23.20;99.90
46336;DHT22;31365;48.858;8.530;2022-08-01T07:12:37;23.20;99.90
46336;DHT22;31365;48.858;8.530;2022-08-01T07:15:09;23.40;99.90
46336;DHT22;31365;48.858;8.530;2022-08-01T07:17:38;23.40;99.90
46336;DHT22;31365;48.858;8.530;2022-08-01T07:20:08;23.50;99.90
46336;DHT22;31365;48.858;8.530;2022-08-01T07:22:39;23.50;99.90
46336;DHT22;31365;48.858;8.530;2022-08-01T07:25:09;23.50;99.90
46336;DHT22;31365;48.858;8.530;2022-08-01T07:27:39;23.50;99.90
46336;DHT22;31365;48.858;8.530;2022-08-01T07:30:08;23.50;99.90
46336;DHT22;31365;48.858;8.530;2022-08-01T07:32:37;23.60;99.90
46336;DHT22;31365;48.858;8.530;2022-08-01T07:35:06;23.80;99.90
46336;DHT22;31365;48.858;8.530;2022-08-01T07:37:34;23.80;99.90
46336;DHT22;31365;48.858;8.530;2022-08-01T07:40:15;24.00;99.90
46336;DHT22;31365;48.858;8.530;2022-08-01T07:42:46;24.10;99.90
46336;DHT22;31365;48.858;8.530;2022-08-01T07:45:15;24.00;99.90
46336;DHT22;31365;48.858;8.530;2022-08-01T07:47:44;23.90;99.90
46336;DHT22;31365;48.858;8.530;2022-08-01T07:50:13;23.90;99.90
46336;DHT22;31365;48.858;8.530;2022-08-01T07:52:41;24.00;99.90
46336;DHT22;31365;48.858;8.530;2022-08-01T07:55:11;24.00;99.90
46336;DHT22;31365;48.858;8.530;2022-08-01T07:57:42;24.10;99.90
46336;DHT22;31365;48.858;8.530;2022-08-01T08:00:13;24.10;99.90
46336;DHT22;31365;48.858;8.530;2022-08-01T08:02:42;24.10;99.90
46336;DHT22;31365;48.858;8.530;2022-08-01T08:05:10;24.10;99.90
46336;DHT22;31365;48.858;8.530;2022-08-01T08:07:39;24.00;99.90
46336;DHT22;31365;48.858;8.530;2022-08-01T08:10:08;24.00;99.90
46336;DHT22;31365;48.858;8.530;2022-08-01T08:12:37;24.00;99.90
46336;DHT22;31365;48.858;8.530;2022-08-01T08:15:06;24.10;99.90
46336;DHT22;31365;48.858;8.530;2022-08-01T08:17:36;24.10;99.90
46336;DHT22;31365;48.858;8.530;2022-08-01T08:20:06;24.20;99.90
46336;DHT22;31365;48.858;8.530;2022-08-01T08:22:36;24.20;99.90
46336;DHT22;31365;48.858;8.530;2022-08-01T08:25:06;24.20;99.90
46336;DHT22;31365;48.858;8.530;2022-08-01T08:27:37;24.20;99.90
46336;DHT22;31365;48.858;8.530;2022-08-01T08:30:07;24.20;99.90
46336;DHT22;31365;48.858;8.530;2022-08-01T08:32:39;24.30;99.90
46336;DHT22;31365;48.858;8.530;2022-08-01T08:35:08;24.30;99.90
46336;DHT22;31365;48.858;8.530;2022-08-01T08:37:41;24.40;99.90
46336;DHT22;31365;48.858;8.530;2022-08-01T08:40:14;24.40;99.90
46336;DHT22;31365;48.858;8.530;2022-08-01T08:42:44;24.60;99.90
46336;DHT22;31365;48.858;8.530;2022-08-01T08:45:14;24.70;99.90
46336;DHT22;31365;48.858;8.530;2022-08-01T08:47:45;24.90;99.90
46336;DHT22;31365;48.858;8.530;2022-08-01T08:50:16;25.10;99.30
46336;DHT22;31365;48.858;8.530;2022-08-01T08:52:46;25.20;99.20
46336;DHT22;31365;48.858;8.530;2022-08-01T08:55:16;25.30;99.10
46336;DHT22;31365;48.858;8.530;2022-08-01T08:57:45;25.40;99.00
46336;DHT22;31365;48.858;8.530;2022-08-01T09:00:15;25.40;98.60
46336;DHT22;31365;48.858;8.530;2022-08-01T09:02:46;25.60;98.60
46336;DHT22;31365;48.858;8.530;2022-08-01T09:05:16;25.60;98.50
46336;DHT22;31365;48.858;8.530;2022-08-01T09:08:06;25.70;98.40
46336;DHT22;31365;48.858;8.530;2022-08-01T09:10:35;25.80;98.20
46336;DHT22;31365;48.858;8.530;2022-08-01T09:13:09;25.80;98.10
46336;DHT22;31365;48.858;8.530;2022-08-01T09:15:43;25.90;98.20
46336;DHT22;31365;48.858;8.530;2022-08-01T09:18:30;26.10;98.10
46336;DHT22;31365;48.858;8.530;2022-08-01T09:21:17;26.50;97.80
46336;DHT22;31365;48.858;8.530;2022-08-01T09:23:50;26.40;97.30
46336;DHT22;31365;48.858;8.530;2022-08-01T09:26:27;26.40;96.80
46336;DHT22;31365;48.858;8.530;2022-08-01T09:29:03;26.30;97.00
46336;DHT22;31365;48.858;8.530;2022-08-01T09:31:40;26.20;97.20
46336;DHT22;31365;48.858;8.530;2022-08-01T09:34:15;26.10;97.40
46336;DHT22;31365;48.858;8.530;2022-08-01T09:36:47;26.00;97.40
46336;DHT22;31365;48.858;8.530;2022-08-01T09:39:23;25.90;97.50
46336;DHT22;31365;48.858;8.530;2022-08-01T09:41:54;25.80;97.40
46336;DHT22;31365;48.858;8.530;2022-08-01T09:44:38;25.80;97.20
46336;DHT22;31365;48.858;8.530;2022-08-01T09:47:11;25.60;97.30
46336;DHT22;31365;48.858;8.530;2022-08-01T09:49:43;25.60;97.50
46336;DHT22;31365;48.858;8.530;2022-08-01T09:52:20;25.80;97.60
46336;DHT22;31365;48.858;8.530;2022-08-01T09:54:56;25.90;97.30
46336;DHT22;31365;48.858;8.530;2022-08-01T09:57:27;25.90;97.10
46336;DHT22;31365;48.858;8.530;2022-08-01T09:59:58;25.90;97.30
46336;DHT22;31365;48.858;8.530;2022-08-01T10:02:39;26.00;97.50
46336;DHT22;31365;48.858;8.530;2022-08-01T10:05:10;26.10;96.90
46336;DHT22;31365;48.858;8.530;2022-08-01T10:07:57;26.20;96.50
46336;DHT22;31365;48.858;8.530;2022-08-01T10:10:33;26.20;96.50
46336;DHT22;31365;48.858;8.530;2022-08-01T10:13:04;26.30;96.50
46336;DHT22;31365;48.858;8.530;2022-08-01T10:15:35;26.50;96.40
46336;DHT22;31365;48.858;8.530;2022-08-01T10:18:06;26.50;96.50
46336;DHT22;31365;48.858;8.530;2022-08-01T10:20:54;26.60;96.50
46336;DHT22;31365;48.858;8.530;2022-08-01T10:23:25;26.40;96.20
46336;DHT22;31365;48.858;8.530;2022-08-01T10:26:07;26.30;96.30
46336;DHT22;31365;48.858;8.530;2022-08-01T10:28:38;26.10;96.10
46336;DHT22;31365;48.858;8.530;2022-08-01T10:31:07;26.10;95.90
46336;DHT22;31365;48.858;8.530;2022-08-01T10:33:39;25.90;96.00
46336;DHT22;31365;48.858;8.530;2022-08-01T10:36:21;26.20;96.60
46336;DHT22;31365;48.858;8.530;2022-08-01T10:38:52;26.30;95.70
46336;DHT22;31365;48.858;8.530;2022-08-01T10:41:22;26.30;95.90
46336;DHT22;31365;48.858;8.530;2022-08-01T10:43:53;26.50;95.50
46336;DHT22;31365;48.858;8.530;2022-08-01T10:46:23;26.80;94.10
46336;DHT22;31365;48.858;8.530;2022-08-01T10:48:56;27.00;94.40
46336;DHT22;31365;48.858;8.530;2022-08-01T10:51:31;27.30;94.40
46336;DHT22;31365;48.858;8.530;2022-08-01T10:54:24;27.20;94.50
46336;DHT22;31365;48.858;8.530;2022-08-01T10:56:54;27.30;94.90
46336;DHT22;31365;48.858;8.530;2022-08-01T10:59:29;27.20;94.80
46336;DHT22;31365;48.858;8.530;2022-08-01T11:02:26;27.00;95.00
46336;DHT22;31365;48.858;8.530;2022-08-01T11:05:00;26.80;95.00
46336;DHT22;31365;48.858;8.530;2022-08-01T11:07:43;26.70;95.20
46336;DHT22;31365;48.858;8.530;2022-08-01T11:10:22;26.60;95.40
46336;DHT22;31365;48.858;8.530;2022-08-01T11:12:53;26.90;95.50
46336;DHT22;31365;48.858;8.530;2022-08-01T11:15:23;27.20;95.00
46336;DHT22;31365;48.858;8.530;2022-08-01T11:17:58;27.80;94.50
46336;DHT22;31365;48.858;8.530;2022-08-01T11:20:28;28.20;93.30
46336;DHT22;31365;48.858;8.530;2022-08-01T11:23:25;28.20;92.70
46336;DHT22;31365;48.858;8.530;2022-08-01T11:26:09;28.00;92.90
46336;DHT22;31365;48.858;8.530;2022-08-01T11:28:45;27.90;93.50
46336;DHT22;31365;48.858;8.530;2022-08-01T11:31:47;27.90;93.40
46336;DHT22;31365;48.858;8.530;2022-08-01T11:34:15;28.70;92.90
46336;DHT22;31365;48.858;8.530;2022-08-01T11:36:43;29.00;92.30
46336;DHT22;31365;48.858;8.530;2022-08-01T11:39:30;28.80;92.00
46336;DHT22;31365;48.858;8.530;2022-08-01T11:42:18;29.20;91.60
46336;DHT22;31365;48.858;8.530;2022-08-01T11:44:49;30.00;90.70
46336;DHT22;31365;48.858;8.530;2022-08-01T11:47:18;30.30;88.50
46336;DHT22;31365;48.858;8.530;2022-08-01T11:50:33;30.10;89.20
46336;DHT22;31365;48.858;8.530;2022-08-01T11:53:04;29.60;90.50
46336;DHT22;31365;48.858;8.530;2022-08-01T11:55:35;29.20;90.50
46336;DHT22;31365;48.858;8.530;2022-08-01T11:58:05;29.00;90.50
46336;DHT22;31365;48.858;8.530;2022-08-01T12:00:54;28.70;90.50
46336;DHT22;31365;48.858;8.530;2022-08-01T12:03:25;28.70;90.50
46336;DHT22;31365;48.858;8.530;2022-08-01T12:06:00;29.40;90.00
46336;DHT22;31365;48.858;8.530;2022-08-01T12:08:30;30.70;88.00
46336;DHT22;31365;48.858;8.530;2022-08-01T12:11:03;31.10;87.40
46336;DHT22;31365;48.858;8.530;2022-08-01T12:13:39;31.30;85.50
46336;DHT22;31365;48.858;8.530;2022-08-01T12:16:10;32.10;83.30
46336;DHT22;31365;48.858;8.530;2022-08-01T12:18:40;32.00;83.10
46336;DHT22;31365;48.858;8.530;2022-08-01T12:21:09;31.80;82.30
46336;DHT22;31365;48.858;8.530;2022-08-01T12:23:38;30.80;84.60
46336;DHT22;31365;48.858;8.530;2022-08-01T12:26:07;30.70;85.30
46336;DHT22;31365;48.858;8.530;2022-08-01T12:28:55;30.90;85.10
46336;DHT22;31365;48.858;8.530;2022-08-01T12:31:31;31.80;84.30
46336;DHT22;31365;48.858;8.530;2022-08-01T12:34:26;31.80;81.70
46336;DHT22;31365;48.858;8.530;2022-08-01T12:36:56;31.00;82.60
46336;DHT22;31365;48.858;8.530;2022-08-01T12:39:31;30.90;84.00
46336;DHT22;31365;48.858;8.530;2022-08-01T12:42:06;31.30;83.80
46336;DHT22;31365;48.858;8.530;2022-08-01T12:44:34;32.20;81.70
46336;DHT22;31365;48.858;8.530;2022-08-01T12:47:04;32.20;81.00
46336;DHT22;31365;48.858;8.530;2022-08-01T12:49:35;33.30;79.90
46336;DHT22;31365;48.858;8.530;2022-08-01T12:52:05;34.60;76.60
46336;DHT22;31365;48.858;8.530;2022-08-01T12:57:48;34.00;75.20
46336;DHT22;31365;48.858;8.530;2022-08-01T13:00:22;33.50;76.60
46336;DHT22;31365;48.858;8.530;2022-08-01T13:03:03;33.50;76.20
46336;DHT22;31365;48.858;8.530;2022-08-01T13:05:45;33.50;75.40
46336;DHT22;31365;48.858;8.530;2022-08-01T13:08:16;33.30;76.50
46336;DHT22;31365;48.858;8.530;2022-08-01T13:10:46;34.10;75.30
46336;DHT22;31365;48.858;8.530;2022-08-01T13:13:18;34.90;73.30
46336;DHT22;31365;48.858;8.530;2022-08-01T13:16:03;35.10;72.50
46336;DHT22;31365;48.858;8.530;2022-08-01T13:18:38;34.60;73.20
46336;DHT22;31365;48.858;8.530;2022-08-01T13:21:12;33.70;74.90
46336;DHT22;31365;48.858;8.530;2022-08-01T13:24:00;33.00;75.80
46336;DHT22;31365;48.858;8.530;2022-08-01T13:26:40;32.80;76.30
46336;DHT22;31365;48.858;8.530;2022-08-01T13:29:12;32.50;77.40
46336;DHT22;31365;48.858;8.530;2022-08-01T13:31:42;32.10;77.80
46336;DHT22;31365;48.858;8.530;2022-08-01T13:34:11;32.10;77.70
46336;DHT22;31365;48.858;8.530;2022-08-01T13:36:40;32.40;78.10
46336;DHT22;31365;48.858;8.530;2022-08-01T13:39:15;32.60;77.00
46336;DHT22;31365;48.858;8.530;2022-08-01T13:42:01;33.20;76.10
46336;DHT22;31365;48.858;8.530;2022-08-01T13:44:32;34.00;74.00
46336;DHT22;31365;48.858;8.530;2022-08-01T13:47:01;34.50;72.10
46336;DHT22;31365;48.858;8.530;2022-08-01T13:49:44;34.30;72.50
46336;DHT22;31365;48.858;8.530;2022-08-01T13:52:13;34.00;72.60
46336;DHT22;31365;48.858;8.530;2022-08-01T13:54:41;33.50;73.00
46336;DHT22;31365;48.858;8.530;2022-08-01T13:57:09;33.00;74.10
46336;DHT22;31365;48.858;8.530;2022-08-01T13:59:39;32.70;74.80
46336;DHT22;31365;48.858;8.530;2022-08-01T14:02:07;32.10;75.70
46336;DHT22;31365;48.858;8.530;2022-08-01T14:04:36;31.50;76.80
46336;DHT22;31365;48.858;8.530;2022-08-01T14:07:04;31.50;77.00
46336;DHT22;31365;48.858;8.530;2022-08-01T14:09:36;32.00;76.90
46336;DHT22;31365;48.858;8.530;2022-08-01T14:12:24;33.20;75.90
46336;DHT22;31365;48.858;8.530;2022-08-01T14:14:54;34.10;72.00
46336;DHT22;31365;48.858;8.530;2022-08-01T14:17:23;34.20;71.60
46336;DHT22;31365;48.858;8.530;2022-08-01T14:19:54;33.90;72.50
46336;DHT22;31365;48.858;8.530;2022-08-01T14:22:23;33.90;72.00
46336;DHT22;31365;48.858;8.530;2022-08-01T14:24:51;33.80;71.40
46336;DHT22;31365;48.858;8.530;2022-08-01T14:27:26;33.90;71.80
46336;DHT22;31365;48.858;8.530;2022-08-01T14:29:58;34.10;70.70
46336;DHT22;31365;48.858;8.530;2022-08-01T14:32:29;34.50;70.40
46336;DHT22;31365;48.858;8.530;2022-08-01T14:35:00;35.30;68.90
46336;DHT22;31365;48.858;8.530;2022-08-01T14:37:28;35.20;68.10
46336;DHT22;31365;48.858;8.530;2022-08-01T14:40:05;34.60;69.10
46336;DHT22;31365;48.858;8.530;2022-08-01T14:42:38;34.10;69.60
46336;DHT22;31365;48.858;8.530;2022-08-01T14:45:08;33.60;69.60
46336;DHT22;31365;48.858;8.530;2022-08-01T14:47:39;33.20;70.80
46336;DHT22;31365;48.858;8.530;2022-08-01T14:50:09;33.20;72.00
46336;DHT22;31365;48.858;8.530;2022-08-01T14:52:40;33.20;71.80
46336;DHT22;31365;48.858;8.530;2022-08-01T14:55:10;32.90;71.80
46336;DHT22;31365;48.858;8.530;2022-08-01T14:57:40;32.00;72.90
46336;DHT22;31365;48.858;8.530;2022-08-01T15:00:10;31.60;74.40
46336;DHT22;31365;48.858;8.530;2022-08-01T15:02:40;31.30;75.20
46336;DHT22;31365;48.858;8.530;2022-08-01T15:05:09;30.90;75.70
46336;DHT22;31365;48.858;8.530;2022-08-01T15:07:37;30.80;76.90
46336;DHT22;31365;48.858;8.530;2022-08-01T15:10:19;30.60;76.80
46336;DHT22;31365;48.858;8.530;2022-08-01T15:12:48;30.50;77.10
46336;DHT22;31365;48.858;8.530;2022-08-01T15:15:18;30.30;77.70
46336;DHT22;31365;48.858;8.530;2022-08-01T15:17:46;30.10;78.30
46336;DHT22;31365;48.858;8.530;2022-08-01T15:20:14;30.10;78.90
46336;DHT22;31365;48.858;8.530;2022-08-01T15:22:43;30.10;79.10
46336;DHT22;31365;48.858;8.530;2022-08-01T15:25:11;30.20;79.30
46336;DHT22;31365;48.858;8.530;2022-08-01T15:27:39;30.30;79.10
46336;DHT22;31365;48.858;8.530;2022-08-01T15:30:09;30.10;78.90
46336;DHT22;31365;48.858;8.530;2022-08-01T15:32:39;30.00;79.00
46336;DHT22;31365;48.858;8.530;2022-08-01T15:35:07;30.00;79.30
46336;DHT22;31365;48.858;8.530;2022-08-01T15:37:37;29.90;79.70
46336;DHT22;31365;48.858;8.530;2022-08-01T15:40:09;29.80;79.70
46336;DHT22;31365;48.858;8.530;2022-08-01T15:42:39;29.80;79.50
46336;DHT22;31365;48.858;8.530;2022-08-01T15:45:08;29.80;79.40
46336;DHT22;31365;48.858;8.530;2022-08-01T15:47:52;29.90;79.30
46336;DHT22;31365;48.858;8.530;2022-08-01T15:50:21;30.00;79.40
46336;DHT22;31365;48.858;8.530;2022-08-01T15:52:49;30.00;79.10
46336;DHT22;31365;48.858;8.530;2022-08-01T15:55:17;29.80;79.60
46336;DHT22;31365;48.858;8.530;2022-08-01T15:57:46;29.60;79.90
46336;DHT22;31365;48.858;8.530;2022-08-01T16:00:15;29.50;80.10
46336;DHT22;31365;48.858;8.530;2022-08-01T16:02:44;29.30;80.10
46336;DHT22;31365;48.858;8.530;2022-08-01T16:05:14;29.30;80.60
46336;DHT22;31365;48.858;8.530;2022-08-01T16:07:46;29.20;81.00